Terminal Aerodrome Forecast
Issued by NWS Pueblo, CO

Home | Current Version | Previous Version | Text Only | Print | Product List | Glossary On
Versions: 1 2 3 4 5 6 7 8 9 10 11 12 13 14 15 16 17 18 19 20 21 22 23 24 25 26 27 28 29 30
000
FTUS45 KPUB 211720
TAFPUB
TAF
KPUB 211720Z 2118/2218 VRB05KT P6SM SKC
     FM211900 13008KT P6SM SCT100 SCT150
     FM212300 12013KT P6SM SCT080 BKN120
     FM220300 01012KT P6SM SCT070 BKN100
     FM221000 VRB06KT P6SM SCT070 BKN100=

USA.gov is the U.S. government's official web portal to all federal, state and local government web resources and services.